Portada
METAR-TAF:

METAR-TAF

Aeroports :

Batesville, Arkansas, Estats Units d'Amèrica

latitud: 35-44N, longitud: 091-39W, altitud: 141 m

Observació

L'informe es va fer fa 15 minuts, a les 05:56 UTC
Vent 6 kt amb direcció variable
Temperatura 7°C
Humitat 100%
Pressió 1023 hPa
Visibilitat: 8.0 km
Cel cobert a una alçada de 500 ft
pluja, boirina

METAR: KBVX 270556Z AUTO VRB06KT 5SM -RA BR OVC005 07/07 A3021 RMK AO2 SLP232 P0001 60007 T00720067 10083 20072 401060072 51007

Hora: 01:11 (06:11 UTC)


TAF: manca

Observacions i pronòstics meteorològics de més de 4000 aeroports (METAR i TAF).

Les estacions disponibles són els punts grocs i vermells al mapa.

Posi el ratolí al punt desitjat per veure el nom de l'estació.

Feu clic per veure les observacions i els pronòstics meteorològics.

Per canviar el mapa: feu clic els botons verds amb una creu de color negre per apropar; al botó verd amb un guió per allunyar la imatge; o en les fletxes verdes per a mapes adjacents.


METAR-TAF: